Plancius — PBQK — position and weather

sailwx.info

Track history (hours):
 
Tides and Currents Weather Stations Pressure Air Temp Water Temp Dewpoint Dewpoint Depression Visibility Wind Speed Wind Dir Waves Ship Positions

Plancius

Last reported at 2019-Jun-16 01:30 UTC. Time now 2019-Jun-16 01:33 UTC.
Position N 78°09' E 012°47'.

Length 90 m; draft 5.2 m.

Type: Passenger vessel. MMSI: 246573000.

Date/timePositionNaut miles runAvg speedWind from/ knotsBaromVisibWave heightAir tempDewpointWater temp
2019-Jun-16 01:30N 78°09' E 012°47'510.3
2019-Jun-16 01:00N 78°08' E 012°22'4 8.9
2019-Jun-16 00:30N 78°09' E 012°01'5 9.9
2019-Jun-15 23:59N 78°10' E 011°38'510.7
2019-Jun-15 23:30N 78°14' E 011°18'510.8
2019-Jun-15 23:00N 78°17' E 010°59'510.7
2019-Jun-15 22:30N 78°21' E 010°40'610.8
2019-Jun-15 21:59N 78°25' E 010°20'510.9
2019-Jun-15 21:29N 78°29' E 010°02'1410.2
2019-Jun-15 20:04N 78°42' E 009°28'211.0
2019-Jun-15 19:56N 78°43' E 009°32'510.9
2019-Jun-15 19:30N 78°47' E 009°44'511.1
2019-Jun-15 19:00N 78°52' E 009°58'611.0
2019-Jun-15 18:30N 78°57' E 010°14'510.3
2019-Jun-15 18:00N 78°59' E 010°39'510.3
2019-Jun-15 17:30N 79°02' E 011°01'510.9
2019-Jun-15 17:00N 79°05' E 011°25'511.0
2019-Jun-15 16:30N 79°09' E 011°44'4 7.3
2019-Jun-15 15:59N 79°12' E 011°54'2 4.2
2019-Jun-15 15:30N 79°12' E 012°05'0 0.2
2019-Jun-15 15:00N 79°12' E 012°04'0 0.1
2019-Jun-15 14:29N 79°12' E 012°04'0 0.2
2019-Jun-15 14:00N 79°12' E 012°04'0 0.1
2019-Jun-15 13:29N 79°12' E 012°04'0 0.0
2019-Jun-15 13:00N 79°12' E 012°04'0 0.1
2019-Jun-15 12:25N 79°12' E 012°04'1 3.0
2019-Jun-15 11:57N 79°13' E 011°57'4 7.8
2019-Jun-15 11:30N 79°14' E 011°41'3 5.4
2019-Jun-15 11:00N 79°17' E 011°35'1 0.7
2019-Jun-15 10:14N 79°16' E 011°34'0 0.0
2019-Jun-15 09:59N 79°16' E 011°34'0 0.0
2019-Jun-15 09:20N 79°16' E 011°34'0 0.0
2019-Jun-15 08:47N 79°16' E 011°34'0 0.0
2019-Jun-15 08:29N 79°16' E 011°34'0 0.0
2019-Jun-15 07:56N 79°16' E 011°34'0 0.0
2019-Jun-15 07:29N 79°16' E 011°34'0 0.0
2019-Jun-15 06:50N 79°16' E 011°34'0 0.0
2019-Jun-15 06:29N 79°16' E 011°34'0 0.1
2019-Jun-15 06:00N 79°16' E 011°34'2 3.4
2019-Jun-15 05:30N 79°15' E 011°40'2 4.5
2019-Jun-15 05:00N 79°13' E 011°44'3 5.3
2019-Jun-15 04:30N 79°10' E 011°45'3 5.2
2019-Jun-15 04:00N 79°08' E 011°40'2 4.7
2019-Jun-15 03:30N 79°06' E 011°31'3 5.5
2019-Jun-15 02:59N 79°04' E 011°20'3 5.2
2019-Jun-15 02:30N 79°04' E 011°07'3 5.6
2019-Jun-15 02:00N 79°06' E 011°00'3 5.8
2019-Jun-15 01:29N 79°09' E 010°55'3 6.0
2019-Jun-15 01:00N 79°12' E 010°49'3 6.3
2019-Jun-15 00:30N 79°15' E 010°44'3 6.5
2019-Jun-15 00:00N 79°18' E 010°39'3 6.3
2019-Jun-14 23:30N 79°21' E 010°36'3 6.3
2019-Jun-14 23:00N 79°24' E 010°32'3 6.2
2019-Jun-14 22:30N 79°27' E 010°28'3 5.6
2019-Jun-14 22:00N 79°30' E 010°24'3 6.9
2019-Jun-14 21:30N 79°33' E 010°24'3 5.1
2019-Jun-14 20:59N 79°36' E 010°28'5 5.8
2019-Jun-14 20:05N 79°34' E 010°56'3 0.3
2019-Jun-14 10:34N 79°37' E 010°47'6 0.3
2019-Jun-13 15:46N 79°42' E 011°09'1 4.6
2019-Jun-13 15:30N 79°43' E 011°07'2 4.7
2019-Jun-13 15:00N 79°45' E 011°05'2 4.8
2019-Jun-13 14:30N 79°47' E 011°03'11 5.4
2019-Jun-13 12:33N 79°57' E 011°22'5 3.8
2019-Jun-13 11:18N 80°01' E 011°04'2 6.3
2019-Jun-13 10:59N 80°01' E 010°52'2 4.1
2019-Jun-13 10:23N 80°01' E 010°38'3 8.1
2019-Jun-13 10:00N 79°59' E 010°52'2 1.7
2019-Jun-13 09:08N 79°58' E 010°56'1 4.0
2019-Jun-13 08:52N 79°57' E 010°55'1 2.8
2019-Jun-13 08:30N 79°56' E 010°53'2 3.3
2019-Jun-13 07:54N 79°57' E 011°02'4 1.9
2019-Jun-13 05:59N 79°56' E 011°23'1 1.8
2019-Jun-13 05:11N 79°58' E 011°22'5 2.4
2019-Jun-13 02:54N 79°54' E 010°58'9 3.6
2019-Jun-13 00:24N 79°47' E 010°29'3 6.0
2019-Jun-12 23:53N 79°44' E 010°22'3 8.2
2019-Jun-12 23:29N 79°41' E 010°18'4 7.7
2019-Jun-12 23:00N 79°37' E 010°22'4 7.3
2019-Jun-12 22:29N 79°34' E 010°23'3 5.7
2019-Jun-12 22:00N 79°31' E 010°23'4 7.5
2019-Jun-12 21:30N 79°27' E 010°24'4 7.6
2019-Jun-12 21:00N 79°23' E 010°30'4 7.9
2019-Jun-12 20:30N 79°20' E 010°35'4 7.8
2019-Jun-12 20:00N 79°16' E 010°41'4 7.7
2019-Jun-12 19:30N 79°12' E 010°47'4 7.6
2019-Jun-12 19:00N 79°09' E 010°52'4 7.6
2019-Jun-12 18:30N 79°05' E 010°58'4 7.5
2019-Jun-12 18:00N 79°03' E 011°14'4 7.3
2019-Jun-12 17:30N 79°01' E 011°31'4 7.3
2019-Jun-12 17:00N 78°59' E 011°47'4 7.1
2019-Jun-12 16:30N 78°57' E 012°03'0 0.4
2019-Jun-12 15:58N 78°57' E 012°04'0 0.1
2019-Jun-12 15:28N 78°57' E 012°04'0 0.0
2019-Jun-12 14:58N 78°57' E 012°04'0 0.0
2019-Jun-12 14:28N 78°57' E 012°04'0 0.0
2019-Jun-12 13:58N 78°57' E 012°04'0 0.0
2019-Jun-12 13:28N 78°57' E 012°04'0 0.0
2019-Jun-12 12:58N 78°57' E 012°04'0 0.0
2019-Jun-12 12:28N 78°57' E 012°04'2 4.6
2019-Jun-12 12:00N 78°58' E 011°54'610.8
2019-Jun-12 11:29N 79°02' E 011°34'5 9.7
2019-Jun-12 10:59N 79°07' E 011°42'2 3.1
2019-Jun-12 10:28N 79°07' E 011°50'0 0.0
2019-Jun-12 09:58N 79°07' E 011°50'0 0.0
2019-Jun-12 09:25N 79°08' E 011°50'0 0.0
2019-Jun-12 08:58N 79°08' E 011°50'0 0.0
2019-Jun-12 08:28N 79°07' E 011°50'0 0.0
2019-Jun-12 07:58N 79°08' E 011°50'0 0.0
2019-Jun-12 07:28N 79°08' E 011°50'0 0.0
2019-Jun-12 06:58N 79°08' E 011°50'0 0.0
2019-Jun-12 06:28N 79°07' E 011°50'0 0.0
2019-Jun-12 06:00N 79°08' E 011°50'2 5.0
2019-Jun-12 05:30N 79°07' E 011°38'4 7.7
2019-Jun-12 05:00N 79°04' E 011°21'4 7.6
2019-Jun-12 04:30N 79°02' E 011°04'4 7.7
2019-Jun-12 04:00N 79°00' E 010°47'4 7.6
2019-Jun-12 03:30N 78°59' E 010°30'4 7.2
2019-Jun-12 03:00N 78°56' E 010°14'10 9.6
2019-Jun-12 02:00N 78°47' E 010°14'610.5
2019-Jun-12 01:28N 78°41' E 010°16'510.6
2019-Jun-12 00:59N 78°37' E 010°25'1010.8
2019-Jun-12 00:01N 78°27' E 010°46'211.0
2019-Jun-11 23:51N 78°25' E 010°50'410.9
2019-Jun-11 23:31N 78°22' E 010°60'510.9
2019-Jun-11 23:00N 78°17' E 011°14'611.0
2019-Jun-11 22:30N 78°13' E 011°29'611.1
2019-Jun-11 22:00N 78°09' E 011°49'511.0
2019-Jun-11 21:30N 78°09' E 012°16'611.0
2019-Jun-11 21:00N 78°09' E 012°42'510.9
2019-Jun-11 20:30N 78°10' E 013°08'510.8
2019-Jun-11 20:00N 78°10' E 013°35'4 9.1
2019-Jun-11 19:30N 78°12' E 013°56'0 0.3
2019-Jun-11 19:00N 78°12' E 013°57'510.2
2019-Jun-11 18:30N 78°14' E 014°18'510.2
2019-Jun-11 18:00N 78°18' E 014°37'510.5
2019-Jun-11 17:30N 78°22' E 014°54'510.0
2019-Jun-11 17:00N 78°27' E 014°57'510.7
2019-Jun-11 16:30N 78°32' E 014°49'510.6
2019-Jun-11 16:00N 78°37' E 014°41'3 5.6
2019-Jun-11 15:30N 78°40' E 014°42'0 0.8
2019-Jun-11 15:00N 78°40' E 014°40'0 0.3
2019-Jun-11 14:30N 78°40' E 014°39'0 0.5
2019-Jun-11 14:00N 78°39' E 014°39'2 4.9
2019-Jun-11 13:30N 78°37' E 014°41'4 8.7
2019-Jun-11 13:00N 78°33' E 014°50'611.0
2019-Jun-11 12:29N 78°28' E 015°06'510.0
2019-Jun-11 12:00N 78°26' E 015°27'610.8
2019-Jun-11 11:29N 78°28' E 015°53'510.7
2019-Jun-11 11:00N 78°31' E 016°13'611.1
2019-Jun-11 10:28N 78°36' E 016°30'4 5.7
2019-Jun-11 09:50N 78°39' E 016°41'1 0.2
2019-Jun-11 05:24N 78°39' E 016°43'1 2.0
2019-Jun-11 04:50N 78°39' E 016°37'1 3.5
2019-Jun-11 04:30N 78°39' E 016°31'0 0.4
2019-Jun-11 03:59N 78°39' E 016°32'1 2.4
2019-Jun-11 03:30N 78°38' E 016°33'5 4.5
2019-Jun-11 02:26N 78°34' E 016°22'2 4.4
2019-Jun-11 01:59N 78°32' E 016°16'2 4.6
2019-Jun-11 01:31N 78°30' E 016°09'2 4.7
2019-Jun-11 01:00N 78°28' E 016°03'2 4.8
2019-Jun-11 00:30N 78°26' E 015°57'3 5.0
2019-Jun-10 23:48N 78°23' E 015°48'2 5.2
2019-Jun-10 23:30N 78°24' E 015°41'2 4.6
2019-Jun-10 23:00N 78°25' E 015°31'2 4.0
2019-Jun-10 22:31N 78°25' E 015°21'2 4.6
2019-Jun-10 22:00N 78°24' E 015°11'2 4.6
2019-Jun-10 21:30N 78°22' E 015°01'2 4.4
2019-Jun-10 21:00N 78°21' E 014°54'2 4.6
2019-Jun-10 20:30N 78°19' E 014°50'2 4.7
2019-Jun-10 20:00N 78°16' E 014°47'2 4.6
2019-Jun-10 19:30N 78°14' E 014°42'2 3.5
2019-Jun-10 18:59N 78°12' E 014°39'2 4.9
2019-Jun-10 18:30N 78°14' E 014°50'2 4.9
2019-Jun-10 18:00N 78°15' E 015°01'2 4.8
2019-Jun-10 17:30N 78°16' E 015°11'2 4.5
2019-Jun-10 17:00N 78°17' E 015°21'2 3.9
2019-Jun-10 16:30N 78°16' E 015°30'2 4.4
2019-Jun-10 15:59N 78°14' E 015°36'0 0.4
2019-Jun-10 15:29N 78°14' E 015°36'0 0.0
2019-Jun-10 14:59N 78°14' E 015°36'0 0.0
2019-Jun-10 14:29N 78°14' E 015°36'0 0.0
2019-Jun-10 13:59N 78°14' E 015°36'0 0.0
2019-Jun-10 13:29N 78°14' E 015°36'0 0.0
2019-Jun-10 12:59N 78°14' E 015°36'0 0.0
2019-Jun-10 12:29N 78°14' E 015°36'0 0.0
2019-Jun-10 11:59N 78°14' E 015°36'0 0.0
2019-Jun-10 11:29N 78°14' E 015°36'0 0.0
2019-Jun-10 10:59N 78°14' E 015°36'0 0.0
2019-Jun-10 10:29N 78°14' E 015°36'0 0.0
2019-Jun-10 09:59N 78°14' E 015°36'0 0.0
2019-Jun-10 09:29N 78°14' E 015°36'0 0.0
2019-Jun-10 08:59N 78°14' E 015°36'0 0.0
2019-Jun-10 08:29N 78°14' E 015°36'0 0.0
2019-Jun-10 07:59N 78°14' E 015°36'0 0.0
2019-Jun-10 07:29N 78°14' E 015°36'0 0.0
2019-Jun-10 06:59N 78°14' E 015°36'0 0.0
2019-Jun-10 06:29N 78°14' E 015°36'0 0.0
2019-Jun-10 05:59N 78°14' E 015°36'0 0.0
2019-Jun-10 05:29N 78°14' E 015°36'0 0.0
2019-Jun-10 04:59N 78°14' E 015°36'0 0.0
2019-Jun-10 04:29N 78°14' E 015°36'0 0.0
2019-Jun-10 03:59N 78°14' E 015°36'0 0.0
2019-Jun-10 03:29N 78°14' E 015°36'0 0.0
2019-Jun-10 02:59N 78°14' E 015°36'0 0.0
2019-Jun-10 02:29N 78°14' E 015°36'0 0.0
2019-Jun-10 01:59N 78°14' E 015°36'0 0.0
2019-Jun-10 01:29N 78°14' E 015°36'0 0.0
2019-Jun-10 00:59N 78°14' E 015°36'0 0.0
2019-Jun-10 00:29N 78°14' E 015°36'0 0.0
2019-Jun-09 23:59N 78°14' E 015°36'0 0.0
2019-Jun-09 23:29N 78°14' E 015°36'0 0.0
2019-Jun-09 22:59N 78°14' E 015°36'0 0.0
2019-Jun-09 22:29N 78°14' E 015°36'0 0.0
2019-Jun-09 21:59N 78°14' E 015°36'0 0.0
2019-Jun-09 21:29N 78°14' E 015°36'0 0.0
2019-Jun-09 20:59N 78°14' E 015°36'0 0.0
2019-Jun-09 20:29N 78°14' E 015°36'0 0.0
2019-Jun-09 19:59N 78°14' E 015°36'1 1.6
2019-Jun-09 19:30N 78°14' E 015°34'4 8.1
2019-Jun-09 18:59N 78°18' E 015°23'511.0
2019-Jun-09 18:30N 78°22' E 015°08'4 8.1
2019-Jun-09 17:59N 78°26' E 014°57'4 8.0
2019-Jun-09 17:29N 78°29' E 014°45'3 6.1
2019-Jun-09 17:00N 78°31' E 014°34'2 3.0
2019-Jun-09 16:29N 78°30' E 014°35'1 2.6
2019-Jun-09 16:00N 78°29' E 014°39'4 8.6
2019-Jun-09 15:30N 78°27' E 014°60'610.6
2019-Jun-09 14:59N 78°26' E 015°26'511.0
2019-Jun-09 14:30N 78°27' E 015°52'4 8.6
2019-Jun-09 14:00N 78°31' E 016°03'1 1.1
2019-Jun-09 13:29N 78°31' E 016°02'0 0.0
2019-Jun-09 12:59N 78°31' E 016°02'0 0.0
2019-Jun-09 12:29N 78°31' E 016°02'0 0.0
2019-Jun-09 11:59N 78°31' E 016°02'0 0.0
2019-Jun-09 11:29N 78°31' E 016°02'0 0.0
2019-Jun-09 10:59N 78°31' E 016°02'1 1.4
2019-Jun-09 10:30N 78°31' E 016°04'3 6.6
2019-Jun-09 10:00N 78°32' E 016°19'4 6.6
2019-Jun-09 09:25N 78°36' E 016°27'3 4.8
2019-Jun-09 08:42N 78°39' E 016°27'1 4.5
2019-Jun-09 08:30N 78°40' E 016°30'0 0.9
2019-Jun-09 07:59N 78°40' E 016°32'2 2.9
2019-Jun-09 07:13N 78°40' E 016°44'3 1.0
2019-Jun-09 04:00N 78°37' E 016°35'3 5.7
2019-Jun-09 03:26N 78°35' E 016°25'2 5.5
2019-Jun-09 02:59N 78°33' E 016°19'3 6.8
2019-Jun-09 02:30N 78°30' E 016°09'3 6.8
2019-Jun-09 01:59N 78°28' E 015°57'3 7.1
2019-Jun-09 01:30N 78°26' E 015°42'4 7.4
2019-Jun-09 00:59N 78°23' E 015°27'3 7.2
2019-Jun-09 00:30N 78°21' E 015°13'4 7.1
2019-Jun-09 00:00N 78°19' E 014°58'3 7.1
2019-Jun-08 23:30N 78°17' E 014°44'3 7.0
2019-Jun-08 23:00N 78°15' E 014°30'4 7.1
2019-Jun-08 22:30N 78°13' E 014°15'4 7.5
2019-Jun-08 22:00N 78°12' E 013°59'4 7.5
2019-Jun-08 21:30N 78°11' E 013°41'4 7.6
2019-Jun-08 21:00N 78°10' E 013°23'4 7.6
2019-Jun-08 20:30N 78°10' E 013°04'4 7.4
2019-Jun-08 20:00N 78°10' E 012°46'4 7.5
2019-Jun-08 19:30N 78°12' E 012°30'3 5.4
2019-Jun-08 19:00N 78°13' E 012°18'2 3.4
2019-Jun-08 18:30N 78°14' E 012°24'1 2.2
2019-Jun-08 18:00N 78°13' E 012°28'0 0.9
2019-Jun-08 17:30N 78°14' E 012°28'2 3.1
2019-Jun-08 16:59N 78°15' E 012°32'3 6.9
2019-Jun-08 16:30N 78°18' E 012°28'510.6
2019-Jun-08 16:00N 78°22' E 012°12'5 9.8
2019-Jun-08 15:30N 78°26' E 011°55'0 0.2
2019-Jun-08 14:58N 78°26' E 011°55'0 0.0
2019-Jun-08 14:25N 78°26' E 011°55'0 0.1
2019-Jun-08 13:58N 78°26' E 011°55'0 0.0
2019-Jun-08 13:28N 78°26' E 011°55'0 0.0
2019-Jun-08 12:58N 78°26' E 011°55'0 0.0
2019-Jun-08 12:28N 78°26' E 011°55'0 0.2
2019-Jun-08 12:00N 78°26' E 011°55'4 8.2
2019-Jun-08 11:30N 78°29' E 012°11'8 1.5
2019-Jun-08 05:56N 78°31' E 012°51'3 6.0
2019-Jun-08 05:26N 78°31' E 012°36'4 9.4
2019-Jun-08 05:00N 78°30' E 012°17'5 9.1
2019-Jun-08 04:30N 78°25' E 012°18'4 7.1
2019-Jun-08 04:00N 78°22' E 012°18'4 7.3
2019-Jun-08 03:31N 78°18' E 012°19'4 7.1
2019-Jun-08 03:00N 78°14' E 012°20'3 7.0
2019-Jun-08 02:30N 78°11' E 012°21'3 6.7
2019-Jun-08 02:01N 78°09' E 012°06'4 7.2
2019-Jun-08 01:30N 78°09' E 011°49'4 7.6
2019-Jun-08 01:00N 78°12' E 011°35'4 7.5
2019-Jun-08 00:30N 78°14' E 011°21'4 7.5
2019-Jun-08 00:00N 78°17' E 011°07'4 7.6
2019-Jun-07 23:30N 78°19' E 010°54'4 7.7
2019-Jun-07 23:00N 78°22' E 010°39'4 7.6
2019-Jun-07 22:30N 78°24' E 010°24'4 7.6
2019-Jun-07 22:00N 78°26' E 010°09'19 8.4
2019-Jun-07 19:48N 78°43' E 009°32'511.1
2019-Jun-07 19:22N 78°47' E 009°44'411.1
2019-Jun-07 19:00N 78°51' E 009°56'611.2
2019-Jun-07 18:30N 78°56' E 010°11'510.4
2019-Jun-07 18:00N 78°58' E 010°34'510.8
2019-Jun-07 17:30N 79°01' E 010°59'510.9
2019-Jun-07 17:00N 79°04' E 011°22'510.9
2019-Jun-07 16:30N 79°08' E 011°41'510.6
2019-Jun-07 16:00N 79°14' E 011°43'510.8
2019-Jun-07 15:30N 79°19' E 011°38'2 4.0
2019-Jun-07 15:00N 79°21' E 011°39'0 0.2
2019-Jun-07 14:30N 79°21' E 011°39'0 0.1
2019-Jun-07 14:00N 79°21' E 011°39'0 0.5
2019-Jun-07 13:30N 79°21' E 011°39'0 0.7
2019-Jun-07 13:00N 79°21' E 011°38'1 2.0
2019-Jun-07 12:30N 79°20' E 011°38'1 2.4
2019-Jun-07 12:00N 79°18' E 011°38'1 2.5
2019-Jun-07 11:30N 79°17' E 011°37'1 2.0
2019-Jun-07 11:00N 79°16' E 011°34'0 0.1
2019-Jun-07 10:26N 79°16' E 011°34'0 0.0
2019-Jun-07 09:41N 79°16' E 011°34'0 0.0
2019-Jun-07 09:29N 79°16' E 011°34'0 0.0
2019-Jun-07 08:56N 79°16' E 011°34'0 0.0
2019-Jun-07 08:29N 79°16' E 011°34'0 0.0
2019-Jun-07 07:56N 79°16' E 011°34'0 0.0
2019-Jun-07 07:29N 79°16' E 011°34'0 0.0
2019-Jun-07 06:57N 79°16' E 011°34'0 0.0
2019-Jun-07 06:27N 79°16' E 011°34'0 0.1
2019-Jun-07 06:00N 79°16' E 011°34'2 3.8
2019-Jun-07 05:30N 79°15' E 011°40'2 4.8
2019-Jun-07 05:00N 79°13' E 011°45'3 5.2
2019-Jun-07 04:30N 79°10' E 011°46'3 5.2
2019-Jun-07 04:01N 79°08' E 011°39'3 5.6
2019-Jun-07 03:30N 79°06' E 011°29'3 5.4
2019-Jun-07 03:00N 79°04' E 011°18'3 5.1
2019-Jun-07 02:30N 79°04' E 011°04'3 6.4
2019-Jun-07 02:00N 79°07' E 010°58'3 5.9
2019-Jun-07 01:30N 79°10' E 010°53'3 5.8
2019-Jun-07 01:00N 79°13' E 010°47'3 6.0
2019-Jun-07 00:30N 79°16' E 010°42'4 7.5
2019-Jun-07 00:00N 79°19' E 010°34'5 9.8
2019-Jun-06 23:30N 79°24' E 010°23'5 8.9
2019-Jun-06 22:59N 79°28' E 010°16'4 8.6
2019-Jun-06 22:30N 79°32' E 010°22'5 9.1
2019-Jun-06 22:00N 79°37' E 010°23'4 7.4
2019-Jun-06 21:30N 79°40' E 010°19'4 7.9
2019-Jun-06 21:00N 79°44' E 010°16'3 5.7
2019-Jun-06 20:30N 79°47' E 010°18'4 6.4
2019-Jun-06 19:56N 79°50' E 010°31'3 3.4
2019-Jun-06 19:01N 79°51' E 010°47'0 3.6
2019-Jun-06 18:53N 79°51' E 010°49'4 0.6
2019-Jun-06 12:39N 79°54' E 011°01'1 4.3
2019-Jun-06 12:30N 79°54' E 010°57'1 2.3
2019-Jun-06 11:59N 79°56' E 010°57'1 1.9
2019-Jun-06 11:22N 79°55' E 011°04'2 1.3
2019-Jun-06 10:02N 79°57' E 011°07'0 3.2
2019-Jun-06 09:58N 79°57' E 011°07'1 1.1
2019-Jun-06 09:10N 79°57' E 011°01'1 1.9
2019-Jun-06 08:46N 79°58' E 010°57'1 2.0
2019-Jun-06 08:30N 79°57' E 010°55'1 1.5
2019-Jun-06 07:58N 79°56' E 010°58'0 0.7
2019-Jun-06 07:30N 79°56' E 010°57'1 1.7
2019-Jun-06 07:00N 79°56' E 010°59'1 1.9
2019-Jun-06 06:18N 79°57' E 011°04'1 2.3
2019-Jun-06 05:58N 79°57' E 011°09'2 1.0
2019-Jun-06 03:45N 79°54' E 011°10'  
Track history (hours):
 
Tides and Currents Weather Stations Pressure Air Temp Water Temp Dewpoint Dewpoint Depression Visibility Wind Speed Wind Dir Waves Ship Positions

Plancius

Last reported at 2019-Jun-16 01:30 UTC. Time now 2019-Jun-16 01:33 UTC.
Position N 78°09' E 012°47'.

Length 90 m; draft 5.2 m.

Type: Passenger vessel. MMSI: 246573000.

Date/timePositionNaut miles runAvg speedWind from/ knotsBaromVisibWave heightAir tempDewpointWater temp
2019-Jun-16 01:30N 78°09' E 012°47'510.3
2019-Jun-16 01:00N 78°08' E 012°22'4 8.9
2019-Jun-16 00:30N 78°09' E 012°01'5 9.9
2019-Jun-15 23:59N 78°10' E 011°38'510.7
2019-Jun-15 23:30N 78°14' E 011°18'510.8
2019-Jun-15 23:00N 78°17' E 010°59'510.7
2019-Jun-15 22:30N 78°21' E 010°40'610.8
2019-Jun-15 21:59N 78°25' E 010°20'510.9
2019-Jun-15 21:29N 78°29' E 010°02'1410.2
2019-Jun-15 20:04N 78°42' E 009°28'211.0
2019-Jun-15 19:56N 78°43' E 009°32'510.9
2019-Jun-15 19:30N 78°47' E 009°44'511.1
2019-Jun-15 19:00N 78°52' E 009°58'611.0
2019-Jun-15 18:30N 78°57' E 010°14'510.3
2019-Jun-15 18:00N 78°59' E 010°39'510.3
2019-Jun-15 17:30N 79°02' E 011°01'510.9
2019-Jun-15 17:00N 79°05' E 011°25'511.0
2019-Jun-15 16:30N 79°09' E 011°44'4 7.3
2019-Jun-15 15:59N 79°12' E 011°54'2 4.2
2019-Jun-15 15:30N 79°12' E 012°05'0 0.2
2019-Jun-15 15:00N 79°12' E 012°04'0 0.1
2019-Jun-15 14:29N 79°12' E 012°04'0 0.2
2019-Jun-15 14:00N 79°12' E 012°04'0 0.1
2019-Jun-15 13:29N 79°12' E 012°04'0 0.0
2019-Jun-15 13:00N 79°12' E 012°04'0 0.1
2019-Jun-15 12:25N 79°12' E 012°04'1 3.0
2019-Jun-15 11:57N 79°13' E 011°57'4 7.8
2019-Jun-15 11:30N 79°14' E 011°41'3 5.4
2019-Jun-15 11:00N 79°17' E 011°35'1 0.7
2019-Jun-15 10:14N 79°16' E 011°34'0 0.0
2019-Jun-15 09:59N 79°16' E 011°34'0 0.0
2019-Jun-15 09:20N 79°16' E 011°34'0 0.0
2019-Jun-15 08:47N 79°16' E 011°34'0 0.0
2019-Jun-15 08:29N 79°16' E 011°34'0 0.0
2019-Jun-15 07:56N 79°16' E 011°34'0 0.0
2019-Jun-15 07:29N 79°16' E 011°34'0 0.0
2019-Jun-15 06:50N 79°16' E 011°34'0 0.0
2019-Jun-15 06:29N 79°16' E 011°34'0 0.1
2019-Jun-15 06:00N 79°16' E 011°34'2 3.4
2019-Jun-15 05:30N 79°15' E 011°40'2 4.5
2019-Jun-15 05:00N 79°13' E 011°44'3 5.3
2019-Jun-15 04:30N 79°10' E 011°45'3 5.2
2019-Jun-15 04:00N 79°08' E 011°40'2 4.7
2019-Jun-15 03:30N 79°06' E 011°31'3 5.5
2019-Jun-15 02:59N 79°04' E 011°20'3 5.2
2019-Jun-15 02:30N 79°04' E 011°07'3 5.6
2019-Jun-15 02:00N 79°06' E 011°00'3 5.8
2019-Jun-15 01:29N 79°09' E 010°55'3 6.0
2019-Jun-15 01:00N 79°12' E 010°49'3 6.3
2019-Jun-15 00:30N 79°15' E 010°44'3 6.5
2019-Jun-15 00:00N 79°18' E 010°39'3 6.3
2019-Jun-14 23:30N 79°21' E 010°36'3 6.3
2019-Jun-14 23:00N 79°24' E 010°32'3 6.2
2019-Jun-14 22:30N 79°27' E 010°28'3 5.6
2019-Jun-14 22:00N 79°30' E 010°24'3 6.9
2019-Jun-14 21:30N 79°33' E 010°24'3 5.1
2019-Jun-14 20:59N 79°36' E 010°28'5 5.8
2019-Jun-14 20:05N 79°34' E 010°56'3 0.3
2019-Jun-14 10:34N 79°37' E 010°47'6 0.3
2019-Jun-13 15:46N 79°42' E 011°09'1 4.6
2019-Jun-13 15:30N 79°43' E 011°07'2 4.7
2019-Jun-13 15:00N 79°45' E 011°05'2 4.8
2019-Jun-13 14:30N 79°47' E 011°03'11 5.4
2019-Jun-13 12:33N 79°57' E 011°22'5 3.8
2019-Jun-13 11:18N 80°01' E 011°04'2 6.3
2019-Jun-13 10:59N 80°01' E 010°52'2 4.1
2019-Jun-13 10:23N 80°01' E 010°38'3 8.1
2019-Jun-13 10:00N 79°59' E 010°52'2 1.7
2019-Jun-13 09:08N 79°58' E 010°56'1 4.0
2019-Jun-13 08:52N 79°57' E 010°55'1 2.8
2019-Jun-13 08:30N 79°56' E 010°53'2 3.3
2019-Jun-13 07:54N 79°57' E 011°02'4 1.9
2019-Jun-13 05:59N 79°56' E 011°23'1 1.8
2019-Jun-13 05:11N 79°58' E 011°22'5 2.4
2019-Jun-13 02:54N 79°54' E 010°58'9 3.6
2019-Jun-13 00:24N 79°47' E 010°29'3 6.0
2019-Jun-12 23:53N 79°44' E 010°22'3 8.2
2019-Jun-12 23:29N 79°41' E 010°18'4 7.7
2019-Jun-12 23:00N 79°37' E 010°22'4 7.3
2019-Jun-12 22:29N 79°34' E 010°23'3 5.7
2019-Jun-12 22:00N 79°31' E 010°23'4 7.5
2019-Jun-12 21:30N 79°27' E 010°24'4 7.6
2019-Jun-12 21:00N 79°23' E 010°30'4 7.9
2019-Jun-12 20:30N 79°20' E 010°35'4 7.8
2019-Jun-12 20:00N 79°16' E 010°41'4 7.7
2019-Jun-12 19:30N 79°12' E 010°47'4 7.6
2019-Jun-12 19:00N 79°09' E 010°52'4 7.6
2019-Jun-12 18:30N 79°05' E 010°58'4 7.5
2019-Jun-12 18:00N 79°03' E 011°14'4 7.3
2019-Jun-12 17:30N 79°01' E 011°31'4 7.3
2019-Jun-12 17:00N 78°59' E 011°47'4 7.1
2019-Jun-12 16:30N 78°57' E 012°03'0 0.4
2019-Jun-12 15:58N 78°57' E 012°04'0 0.1
2019-Jun-12 15:28N 78°57' E 012°04'0 0.0
2019-Jun-12 14:58N 78°57' E 012°04'0 0.0
2019-Jun-12 14:28N 78°57' E 012°04'0 0.0
2019-Jun-12 13:58N 78°57' E 012°04'0 0.0
2019-Jun-12 13:28N 78°57' E 012°04'0 0.0
2019-Jun-12 12:58N 78°57' E 012°04'0 0.0
2019-Jun-12 12:28N 78°57' E 012°04'2 4.6
2019-Jun-12 12:00N 78°58' E 011°54'610.8
2019-Jun-12 11:29N 79°02' E 011°34'5 9.7
2019-Jun-12 10:59N 79°07' E 011°42'2 3.1
2019-Jun-12 10:28N 79°07' E 011°50'0 0.0
2019-Jun-12 09:58N 79°07' E 011°50'0 0.0
2019-Jun-12 09:25N 79°08' E 011°50'0 0.0
2019-Jun-12 08:58N 79°08' E 011°50'0 0.0
2019-Jun-12 08:28N 79°07' E 011°50'0 0.0
2019-Jun-12 07:58N 79°08' E 011°50'0 0.0
2019-Jun-12 07:28N 79°08' E 011°50'0 0.0
2019-Jun-12 06:58N 79°08' E 011°50'0 0.0
2019-Jun-12 06:28N 79°07' E 011°50'0 0.0
2019-Jun-12 06:00N 79°08' E 011°50'2 5.0
2019-Jun-12 05:30N 79°07' E 011°38'4 7.7
2019-Jun-12 05:00N 79°04' E 011°21'4 7.6
2019-Jun-12 04:30N 79°02' E 011°04'4 7.7
2019-Jun-12 04:00N 79°00' E 010°47'4 7.6
2019-Jun-12 03:30N 78°59' E 010°30'4 7.2
2019-Jun-12 03:00N 78°56' E 010°14'10 9.6
2019-Jun-12 02:00N 78°47' E 010°14'610.5
2019-Jun-12 01:28N 78°41' E 010°16'510.6
2019-Jun-12 00:59N 78°37' E 010°25'1010.8
2019-Jun-12 00:01N 78°27' E 010°46'211.0
2019-Jun-11 23:51N 78°25' E 010°50'410.9
2019-Jun-11 23:31N 78°22' E 010°60'510.9
2019-Jun-11 23:00N 78°17' E 011°14'611.0
2019-Jun-11 22:30N 78°13' E 011°29'611.1
2019-Jun-11 22:00N 78°09' E 011°49'511.0
2019-Jun-11 21:30N 78°09' E 012°16'611.0
2019-Jun-11 21:00N 78°09' E 012°42'510.9
2019-Jun-11 20:30N 78°10' E 013°08'510.8
2019-Jun-11 20:00N 78°10' E 013°35'4 9.1
2019-Jun-11 19:30N 78°12' E 013°56'0 0.3
2019-Jun-11 19:00N 78°12' E 013°57'510.2
2019-Jun-11 18:30N 78°14' E 014°18'510.2
2019-Jun-11 18:00N 78°18' E 014°37'510.5
2019-Jun-11 17:30N 78°22' E 014°54'510.0
2019-Jun-11 17:00N 78°27' E 014°57'510.7
2019-Jun-11 16:30N 78°32' E 014°49'510.6
2019-Jun-11 16:00N 78°37' E 014°41'3 5.6
2019-Jun-11 15:30N 78°40' E 014°42'0 0.8
2019-Jun-11 15:00N 78°40' E 014°40'0 0.3
2019-Jun-11 14:30N 78°40' E 014°39'0 0.5
2019-Jun-11 14:00N 78°39' E 014°39'2 4.9
2019-Jun-11 13:30N 78°37' E 014°41'4 8.7
2019-Jun-11 13:00N 78°33' E 014°50'611.0
2019-Jun-11 12:29N 78°28' E 015°06'510.0
2019-Jun-11 12:00N 78°26' E 015°27'610.8
2019-Jun-11 11:29N 78°28' E 015°53'510.7
2019-Jun-11 11:00N 78°31' E 016°13'611.1
2019-Jun-11 10:28N 78°36' E 016°30'4 5.7
2019-Jun-11 09:50N 78°39' E 016°41'1 0.2
2019-Jun-11 05:24N 78°39' E 016°43'1 2.0
2019-Jun-11 04:50N 78°39' E 016°37'1 3.5
2019-Jun-11 04:30N 78°39' E 016°31'0 0.4
2019-Jun-11 03:59N 78°39' E 016°32'1 2.4
2019-Jun-11 03:30N 78°38' E 016°33'5 4.5
2019-Jun-11 02:26N 78°34' E 016°22'2 4.4
2019-Jun-11 01:59N 78°32' E 016°16'2 4.6
2019-Jun-11 01:31N 78°30' E 016°09'2 4.7
2019-Jun-11 01:00N 78°28' E 016°03'2 4.8
2019-Jun-11 00:30N 78°26' E 015°57'3 5.0
2019-Jun-10 23:48N 78°23' E 015°48'2 5.2
2019-Jun-10 23:30N 78°24' E 015°41'2 4.6
2019-Jun-10 23:00N 78°25' E 015°31'2 4.0
2019-Jun-10 22:31N 78°25' E 015°21'2 4.6
2019-Jun-10 22:00N 78°24' E 015°11'2 4.6
2019-Jun-10 21:30N 78°22' E 015°01'2 4.4
2019-Jun-10 21:00N 78°21' E 014°54'2 4.6
2019-Jun-10 20:30N 78°19' E 014°50'2 4.7
2019-Jun-10 20:00N 78°16' E 014°47'2 4.6
2019-Jun-10 19:30N 78°14' E 014°42'2 3.5
2019-Jun-10 18:59N 78°12' E 014°39'2 4.9
2019-Jun-10 18:30N 78°14' E 014°50'2 4.9
2019-Jun-10 18:00N 78°15' E 015°01'2 4.8
2019-Jun-10 17:30N 78°16' E 015°11'2 4.5
2019-Jun-10 17:00N 78°17' E 015°21'2 3.9
2019-Jun-10 16:30N 78°16' E 015°30'2 4.4
2019-Jun-10 15:59N 78°14' E 015°36'0 0.4
2019-Jun-10 15:29N 78°14' E 015°36'0 0.0
2019-Jun-10 14:59N 78°14' E 015°36'0 0.0
2019-Jun-10 14:29N 78°14' E 015°36'0 0.0
2019-Jun-10 13:59N 78°14' E 015°36'0 0.0
2019-Jun-10 13:29N 78°14' E 015°36'0 0.0
2019-Jun-10 12:59N 78°14' E 015°36'0 0.0
2019-Jun-10 12:29N 78°14' E 015°36'0 0.0
2019-Jun-10 11:59N 78°14' E 015°36'0 0.0
2019-Jun-10 11:29N 78°14' E 015°36'0 0.0
2019-Jun-10 10:59N 78°14' E 015°36'0 0.0
2019-Jun-10 10:29N 78°14' E 015°36'0 0.0
2019-Jun-10 09:59N 78°14' E 015°36'0 0.0
2019-Jun-10 09:29N 78°14' E 015°36'0 0.0
2019-Jun-10 08:59N 78°14' E 015°36'0 0.0
2019-Jun-10 08:29N 78°14' E 015°36'0 0.0
2019-Jun-10 07:59N 78°14' E 015°36'0 0.0
2019-Jun-10 07:29N 78°14' E 015°36'0 0.0
2019-Jun-10 06:59N 78°14' E 015°36'0 0.0
2019-Jun-10 06:29N 78°14' E 015°36'0 0.0
2019-Jun-10 05:59N 78°14' E 015°36'0 0.0
2019-Jun-10 05:29N 78°14' E 015°36'0 0.0
2019-Jun-10 04:59N 78°14' E 015°36'0 0.0
2019-Jun-10 04:29N 78°14' E 015°36'0 0.0
2019-Jun-10 03:59N 78°14' E 015°36'0 0.0
2019-Jun-10 03:29N 78°14' E 015°36'0 0.0
2019-Jun-10 02:59N 78°14' E 015°36'0 0.0
2019-Jun-10 02:29N 78°14' E 015°36'0 0.0
2019-Jun-10 01:59N 78°14' E 015°36'0 0.0
2019-Jun-10 01:29N 78°14' E 015°36'0 0.0
2019-Jun-10 00:59N 78°14' E 015°36'0 0.0
2019-Jun-10 00:29N 78°14' E 015°36'0 0.0
2019-Jun-09 23:59N 78°14' E 015°36'0 0.0
2019-Jun-09 23:29N 78°14' E 015°36'0 0.0
2019-Jun-09 22:59N 78°14' E 015°36'0 0.0
2019-Jun-09 22:29N 78°14' E 015°36'0 0.0
2019-Jun-09 21:59N 78°14' E 015°36'0 0.0
2019-Jun-09 21:29N 78°14' E 015°36'0 0.0
2019-Jun-09 20:59N 78°14' E 015°36'0 0.0
2019-Jun-09 20:29N 78°14' E 015°36'0 0.0
2019-Jun-09 19:59N 78°14' E 015°36'1 1.6
2019-Jun-09 19:30N 78°14' E 015°34'4 8.1
2019-Jun-09 18:59N 78°18' E 015°23'511.0
2019-Jun-09 18:30N 78°22' E 015°08'4 8.1
2019-Jun-09 17:59N 78°26' E 014°57'4 8.0
2019-Jun-09 17:29N 78°29' E 014°45'3 6.1
2019-Jun-09 17:00N 78°31' E 014°34'2 3.0
2019-Jun-09 16:29N 78°30' E 014°35'1 2.6
2019-Jun-09 16:00N 78°29' E 014°39'4 8.6
2019-Jun-09 15:30N 78°27' E 014°60'610.6
2019-Jun-09 14:59N 78°26' E 015°26'511.0
2019-Jun-09 14:30N 78°27' E 015°52'4 8.6
2019-Jun-09 14:00N 78°31' E 016°03'1 1.1
2019-Jun-09 13:29N 78°31' E 016°02'0 0.0
2019-Jun-09 12:59N 78°31' E 016°02'0 0.0
2019-Jun-09 12:29N 78°31' E 016°02'0 0.0
2019-Jun-09 11:59N 78°31' E 016°02'0 0.0
2019-Jun-09 11:29N 78°31' E 016°02'0 0.0
2019-Jun-09 10:59N 78°31' E 016°02'1 1.4
2019-Jun-09 10:30N 78°31' E 016°04'3 6.6
2019-Jun-09 10:00N 78°32' E 016°19'4 6.6
2019-Jun-09 09:25N 78°36' E 016°27'3 4.8
2019-Jun-09 08:42N 78°39' E 016°27'1 4.5
2019-Jun-09 08:30N 78°40' E 016°30'0 0.9
2019-Jun-09 07:59N 78°40' E 016°32'2 2.9
2019-Jun-09 07:13N 78°40' E 016°44'3 1.0
2019-Jun-09 04:00N 78°37' E 016°35'3 5.7
2019-Jun-09 03:26N 78°35' E 016°25'2 5.5
2019-Jun-09 02:59N 78°33' E 016°19'3 6.8
2019-Jun-09 02:30N 78°30' E 016°09'3 6.8
2019-Jun-09 01:59N 78°28' E 015°57'3 7.1
2019-Jun-09 01:30N 78°26' E 015°42'4 7.4
2019-Jun-09 00:59N 78°23' E 015°27'3 7.2
2019-Jun-09 00:30N 78°21' E 015°13'4 7.1
2019-Jun-09 00:00N 78°19' E 014°58'3 7.1
2019-Jun-08 23:30N 78°17' E 014°44'3 7.0
2019-Jun-08 23:00N 78°15' E 014°30'4 7.1
2019-Jun-08 22:30N 78°13' E 014°15'4 7.5
2019-Jun-08 22:00N 78°12' E 013°59'4 7.5
2019-Jun-08 21:30N 78°11' E 013°41'4 7.6
2019-Jun-08 21:00N 78°10' E 013°23'4 7.6
2019-Jun-08 20:30N 78°10' E 013°04'4 7.4
2019-Jun-08 20:00N 78°10' E 012°46'4 7.5
2019-Jun-08 19:30N 78°12' E 012°30'3 5.4
2019-Jun-08 19:00N 78°13' E 012°18'2 3.4
2019-Jun-08 18:30N 78°14' E 012°24'1 2.2
2019-Jun-08 18:00N 78°13' E 012°28'0 0.9
2019-Jun-08 17:30N 78°14' E 012°28'2 3.1
2019-Jun-08 16:59N 78°15' E 012°32'3 6.9
2019-Jun-08 16:30N 78°18' E 012°28'510.6
2019-Jun-08 16:00N 78°22' E 012°12'5 9.8
2019-Jun-08 15:30N 78°26' E 011°55'0 0.2
2019-Jun-08 14:58N 78°26' E 011°55'0 0.0
2019-Jun-08 14:25N 78°26' E 011°55'0 0.1
2019-Jun-08 13:58N 78°26' E 011°55'0 0.0
2019-Jun-08 13:28N 78°26' E 011°55'0 0.0
2019-Jun-08 12:58N 78°26' E 011°55'0 0.0
2019-Jun-08 12:28N 78°26' E 011°55'0 0.2
2019-Jun-08 12:00N 78°26' E 011°55'4 8.2
2019-Jun-08 11:30N 78°29' E 012°11'8 1.5
2019-Jun-08 05:56N 78°31' E 012°51'3 6.0
2019-Jun-08 05:26N 78°31' E 012°36'4 9.4
2019-Jun-08 05:00N 78°30' E 012°17'5 9.1
2019-Jun-08 04:30N 78°25' E 012°18'4 7.1
2019-Jun-08 04:00N 78°22' E 012°18'4 7.3
2019-Jun-08 03:31N 78°18' E 012°19'4 7.1
2019-Jun-08 03:00N 78°14' E 012°20'3 7.0
2019-Jun-08 02:30N 78°11' E 012°21'3 6.7
2019-Jun-08 02:01N 78°09' E 012°06'4 7.2
2019-Jun-08 01:30N 78°09' E 011°49'4 7.6
2019-Jun-08 01:00N 78°12' E 011°35'4 7.5
2019-Jun-08 00:30N 78°14' E 011°21'4 7.5
2019-Jun-08 00:00N 78°17' E 011°07'4 7.6
2019-Jun-07 23:30N 78°19' E 010°54'4 7.7
2019-Jun-07 23:00N 78°22' E 010°39'4 7.6
2019-Jun-07 22:30N 78°24' E 010°24'4 7.6
2019-Jun-07 22:00N 78°26' E 010°09'19 8.4
2019-Jun-07 19:48N 78°43' E 009°32'511.1
2019-Jun-07 19:22N 78°47' E 009°44'411.1
2019-Jun-07 19:00N 78°51' E 009°56'611.2
2019-Jun-07 18:30N 78°56' E 010°11'510.4
2019-Jun-07 18:00N 78°58' E 010°34'510.8
2019-Jun-07 17:30N 79°01' E 010°59'510.9
2019-Jun-07 17:00N 79°04' E 011°22'510.9
2019-Jun-07 16:30N 79°08' E 011°41'510.6
2019-Jun-07 16:00N 79°14' E 011°43'510.8
2019-Jun-07 15:30N 79°19' E 011°38'2 4.0
2019-Jun-07 15:00N 79°21' E 011°39'0 0.2
2019-Jun-07 14:30N 79°21' E 011°39'0 0.1
2019-Jun-07 14:00N 79°21' E 011°39'0 0.5
2019-Jun-07 13:30N 79°21' E 011°39'0 0.7
2019-Jun-07 13:00N 79°21' E 011°38'1 2.0
2019-Jun-07 12:30N 79°20' E 011°38'1 2.4
2019-Jun-07 12:00N 79°18' E 011°38'1 2.5
2019-Jun-07 11:30N 79°17' E 011°37'1 2.0
2019-Jun-07 11:00N 79°16' E 011°34'0 0.1
2019-Jun-07 10:26N 79°16' E 011°34'0 0.0
2019-Jun-07 09:41N 79°16' E 011°34'0 0.0
2019-Jun-07 09:29N 79°16' E 011°34'0 0.0
2019-Jun-07 08:56N 79°16' E 011°34'0 0.0
2019-Jun-07 08:29N 79°16' E 011°34'0 0.0
2019-Jun-07 07:56N 79°16' E 011°34'0 0.0
2019-Jun-07 07:29N 79°16' E 011°34'0 0.0
2019-Jun-07 06:57N 79°16' E 011°34'0 0.0
2019-Jun-07 06:27N 79°16' E 011°34'0 0.1
2019-Jun-07 06:00N 79°16' E 011°34'2 3.8
2019-Jun-07 05:30N 79°15' E 011°40'2 4.8
2019-Jun-07 05:00N 79°13' E 011°45'3 5.2
2019-Jun-07 04:30N 79°10' E 011°46'3 5.2
2019-Jun-07 04:01N 79°08' E 011°39'3 5.6
2019-Jun-07 03:30N 79°06' E 011°29'3 5.4
2019-Jun-07 03:00N 79°04' E 011°18'3 5.1
2019-Jun-07 02:30N 79°04' E 011°04'3 6.4
2019-Jun-07 02:00N 79°07' E 010°58'3 5.9
2019-Jun-07 01:30N 79°10' E 010°53'3 5.8
2019-Jun-07 01:00N 79°13' E 010°47'3 6.0
2019-Jun-07 00:30N 79°16' E 010°42'4 7.5
2019-Jun-07 00:00N 79°19' E 010°34'5 9.8
2019-Jun-06 23:30N 79°24' E 010°23'5 8.9
2019-Jun-06 22:59N 79°28' E 010°16'4 8.6
2019-Jun-06 22:30N 79°32' E 010°22'5 9.1
2019-Jun-06 22:00N 79°37' E 010°23'4 7.4
2019-Jun-06 21:30N 79°40' E 010°19'4 7.9
2019-Jun-06 21:00N 79°44' E 010°16'3 5.7
2019-Jun-06 20:30N 79°47' E 010°18'4 6.4
2019-Jun-06 19:56N 79°50' E 010°31'3 3.4
2019-Jun-06 19:01N 79°51' E 010°47'0 3.6
2019-Jun-06 18:53N 79°51' E 010°49'4 0.6
2019-Jun-06 12:39N 79°54' E 011°01'1 4.3
2019-Jun-06 12:30N 79°54' E 010°57'1 2.3
2019-Jun-06 11:59N 79°56' E 010°57'1 1.9
2019-Jun-06 11:22N 79°55' E 011°04'2 1.3
2019-Jun-06 10:02N 79°57' E 011°07'0 3.2
2019-Jun-06 09:58N 79°57' E 011°07'1 1.1
2019-Jun-06 09:10N 79°57' E 011°01'1 1.9
2019-Jun-06 08:46N 79°58' E 010°57'1 2.0
2019-Jun-06 08:30N 79°57' E 010°55'1 1.5
2019-Jun-06 07:58N 79°56' E 010°58'0 0.7
2019-Jun-06 07:30N 79°56' E 010°57'1 1.7
2019-Jun-06 07:00N 79°56' E 010°59'1 1.9
2019-Jun-06 06:18N 79°57' E 011°04'1 2.3
2019-Jun-06 05:58N 79°57' E 011°09'2 1.0
2019-Jun-06 03:45N 79°54' E 011°10'  

Dump ship's entire track history